createdAt,value
2018-12-02T00:01:49.445Z,27.27
2018-12-02T00:04:23.713Z,27.50
2018-12-02T00:06:58.097Z,27.30
2018-12-02T00:09:34.194Z,26.00
2018-12-02T00:12:10.251Z,24.57
2018-12-02T00:14:44.406Z,26.23
2018-12-02T00:17:18.273Z,27.43
2018-12-02T00:19:52.674Z,26.77
2018-12-02T00:22:26.578Z,26.83
2018-12-02T00:25:01.245Z,29.20
2018-12-02T00:27:36.211Z,30.68
2018-12-02T00:30:20.600Z,31.43
2018-12-02T00:32:54.536Z,27.37
2018-12-02T00:40:29.927Z,31.47
2018-12-02T00:43:06.088Z,45.27
2018-12-02T00:45:40.996Z,39.07
2018-12-02T00:48:15.184Z,33.03
2018-12-02T00:50:51.446Z,29.47
2018-12-02T00:53:26.548Z,33.67
2018-12-02T00:56:04.367Z,39.97
2018-12-02T00:58:38.606Z,61.23
2018-12-02T01:01:12.836Z,39.85
2018-12-02T01:03:46.773Z,35.55
2018-12-02T01:06:22.121Z,36.47
2018-12-02T01:08:58.558Z,37.13
2018-12-02T01:11:33.854Z,32.50
2018-12-02T01:14:09.047Z,31.23
2018-12-02T01:16:43.223Z,29.97
2018-12-02T01:19:18.069Z,30.43
2018-12-02T01:21:53.322Z,29.77
2018-12-02T01:24:28.765Z,27.52
2018-12-02T01:27:03.894Z,22.10
2018-12-02T01:29:38.221Z,25.87
2018-12-02T01:32:12.402Z,24.47
2018-12-02T01:34:46.541Z,26.87
2018-12-02T01:37:22.526Z,30.07
2018-12-02T01:39:56.644Z,22.90
2018-12-02T01:42:31.828Z,21.10
2018-12-02T01:45:05.873Z,14.83
2018-12-02T01:47:40.080Z,13.60
2018-12-02T01:50:18.966Z,12.93
2018-12-02T01:52:54.157Z,14.00
2018-12-02T01:55:29.639Z,13.07
2018-12-02T01:58:03.977Z,12.50
2018-12-02T02:00:40.821Z,11.28
2018-12-02T02:03:14.999Z,10.88
2018-12-02T02:05:49.045Z,10.75
2018-12-02T02:08:23.097Z,12.65
2018-12-02T02:10:59.112Z,11.20
2018-12-02T02:13:33.396Z,12.00
2018-12-02T02:16:07.429Z,10.37
2018-12-02T02:18:43.462Z,10.55
2018-12-02T02:21:17.738Z,12.58
2018-12-02T02:23:51.918Z,14.25
2018-12-02T02:26:25.949Z,13.40
2018-12-02T02:29:01.533Z,13.60
2018-12-02T02:31:35.386Z,17.87
2018-12-02T02:34:09.501Z,18.30
2018-12-02T02:36:43.587Z,21.87
2018-12-02T02:39:17.960Z,19.82
2018-12-02T02:41:52.208Z,17.30
2018-12-02T02:44:27.115Z,19.37
2018-12-02T02:47:01.541Z,19.27
2018-12-02T02:49:35.597Z,23.00
2018-12-02T02:52:09.621Z,18.50
2018-12-02T02:54:43.333Z,20.47
2018-12-02T02:57:18.249Z,23.22
2018-12-02T02:59:52.034Z,19.15
2018-12-02T03:04:57.276Z,22.13
2018-12-02T03:07:31.652Z,22.85
2018-12-02T03:10:06.088Z,24.30
2018-12-02T03:12:40.825Z,21.90
2018-12-02T03:15:18.860Z,19.73
2018-12-02T03:17:52.552Z,20.30
2018-12-02T03:20:27.551Z,21.20
2018-12-02T03:23:02.017Z,21.20
2018-12-02T03:25:36.443Z,20.77
2018-12-02T03:28:12.278Z,18.05
2018-12-02T03:30:46.566Z,17.85
2018-12-02T03:33:20.869Z,18.77
2018-12-02T03:35:55.053Z,17.03
2018-12-02T03:38:29.101Z,16.43
2018-12-02T03:41:04.073Z,16.33
2018-12-02T03:43:38.194Z,15.30
2018-12-02T03:46:12.057Z,21.63
2018-12-02T03:48:46.085Z,31.68
2018-12-02T03:51:20.134Z,25.70
2018-12-02T03:53:54.368Z,22.52
2018-12-02T03:56:28.253Z,19.15
2018-12-02T03:59:02.248Z,23.83
2018-12-02T04:01:36.514Z,24.63
2018-12-02T04:04:10.557Z,22.10
2018-12-02T04:06:45.153Z,19.73
2018-12-02T04:09:19.111Z,21.33
2018-12-02T04:11:53.022Z,21.87
2018-12-02T04:14:28.303Z,20.13
2018-12-02T04:17:02.213Z,19.82
2018-12-02T04:19:38.180Z,20.70
2018-12-02T04:22:13.422Z,24.70
2018-12-02T04:24:49.345Z,21.77
2018-12-02T04:27:23.589Z,21.20
2018-12-02T04:30:00.601Z,22.60
2018-12-02T04:32:35.627Z,22.03
2018-12-02T04:35:13.717Z,24.95
2018-12-02T04:37:49.078Z,23.03
2018-12-02T04:40:25.231Z,26.53
2018-12-02T04:42:59.339Z,27.17
2018-12-02T04:45:33.554Z,27.15
2018-12-02T04:48:07.745Z,25.53
2018-12-02T04:50:42.549Z,27.17
2018-12-02T04:53:18.014Z,27.47
2018-12-02T04:55:53.287Z,26.30
2018-12-02T04:58:27.416Z,23.90
2018-12-02T05:01:01.974Z,23.37
2018-12-02T05:03:36.074Z,21.83
2018-12-02T05:06:10.574Z,21.40
2018-12-02T05:08:45.482Z,20.90
2018-12-02T05:11:19.510Z,21.35
2018-12-02T05:13:53.653Z,19.48
2018-12-02T05:16:29.701Z,18.35
2018-12-02T05:19:04.571Z,16.77
2018-12-02T05:21:39.137Z,21.10
2018-12-02T05:24:13.429Z,19.10
2018-12-02T05:26:47.480Z,18.65
2018-12-02T05:29:21.598Z,17.32
2018-12-02T05:31:56.005Z,18.55
2018-12-02T05:34:30.025Z,15.05
2018-12-02T05:37:03.503Z,17.52
2018-12-02T05:39:37.396Z,15.43
2018-12-02T05:42:15.451Z,14.03
2018-12-02T05:44:50.666Z,13.58
2018-12-02T05:47:26.200Z,14.80
2018-12-02T05:50:01.534Z,13.30
2018-12-02T05:52:35.989Z,14.43
2018-12-02T05:55:12.743Z,12.13
2018-12-02T05:57:47.750Z,10.25
2018-12-02T06:00:22.891Z,12.03
2018-12-02T06:02:57.142Z,12.05
2018-12-02T06:05:32.512Z,11.48
2018-12-02T06:08:06.307Z,10.93
2018-12-02T06:10:42.423Z,11.43
2018-12-02T06:13:17.173Z,9.80
2018-12-02T06:15:51.643Z,11.87
2018-12-02T06:18:27.852Z,9.13
2018-12-02T06:21:02.126Z,8.55
2018-12-02T06:23:36.146Z,9.27
2018-12-02T06:26:10.454Z,9.58
2018-12-02T06:28:44.361Z,9.75
2018-12-02T06:31:20.632Z,17.07
2018-12-02T06:34:11.417Z,9.90
2018-12-02T06:36:59.132Z,8.73
2018-12-02T06:39:33.975Z,11.78
2018-12-02T06:42:09.379Z,9.10
2018-12-02T06:44:47.090Z,10.23
2018-12-02T06:47:22.332Z,9.80
2018-12-02T06:49:57.189Z,7.83
2018-12-02T06:52:31.753Z,7.97
2018-12-02T06:55:14.511Z,8.10
2018-12-02T06:57:58.714Z,7.25
2018-12-02T07:01:19.691Z,7.75
2018-12-02T07:04:04.347Z,7.12
2018-12-02T07:06:38.531Z,7.45
2018-12-02T07:09:15.276Z,6.65
2018-12-02T07:11:52.142Z,6.45
2018-12-02T07:14:28.033Z,8.30
2018-12-02T07:17:05.038Z,7.20
2018-12-02T07:19:55.232Z,7.37
2018-12-02T07:22:37.050Z,8.63
2018-12-02T07:25:22.261Z,7.55
2018-12-02T07:27:57.187Z,8.48
2018-12-02T07:30:33.081Z,8.23
2018-12-02T07:33:08.120Z,8.28
2018-12-02T07:35:42.313Z,7.80
2018-12-02T07:38:23.356Z,8.18
2018-12-02T07:41:01.192Z,8.00
2018-12-02T07:43:36.129Z,7.90
2018-12-02T07:46:18.813Z,7.48
2018-12-02T07:48:53.682Z,7.78
2018-12-02T07:51:27.619Z,7.15
2018-12-02T07:54:03.689Z,7.83
2018-12-02T07:56:37.989Z,7.50
2018-12-02T07:59:12.267Z,9.53
2018-12-02T08:01:46.340Z,8.83
2018-12-02T08:04:22.510Z,8.80
2018-12-02T08:06:58.723Z,9.03
2018-12-02T08:09:34.326Z,8.45
2018-12-02T08:12:09.674Z,8.25
2018-12-02T08:14:44.667Z,8.43
2018-12-02T08:17:20.984Z,8.90
2018-12-02T08:19:56.591Z,10.48
2018-12-02T08:22:31.507Z,10.75
2018-12-02T08:25:05.190Z,12.50
2018-12-02T08:27:39.914Z,9.43
2018-12-02T08:30:16.415Z,9.45
2018-12-02T08:32:50.476Z,9.17
2018-12-02T08:35:25.702Z,8.95
2018-12-02T08:38:03.208Z,8.55
2018-12-02T08:40:37.406Z,9.35
2018-12-02T08:43:16.777Z,8.68
2018-12-02T08:45:50.669Z,8.13
2018-12-02T08:48:25.317Z,8.75
2018-12-02T08:51:04.401Z,16.62
2018-12-02T08:53:39.672Z,8.78
2018-12-02T08:56:13.927Z,8.28
2018-12-02T08:58:47.762Z,9.75
2018-12-02T09:01:22.029Z,8.23
2018-12-02T09:03:57.138Z,8.25
2018-12-02T09:06:32.727Z,8.25
2018-12-02T09:09:07.685Z,8.73
2018-12-02T09:11:42.048Z,7.70
2018-12-02T09:14:16.274Z,7.97
2018-12-02T09:16:51.796Z,7.55
2018-12-02T09:19:26.644Z,8.10
2018-12-02T09:22:02.019Z,8.25
2018-12-02T09:24:35.858Z,7.97
2018-12-02T09:27:09.782Z,9.80
2018-12-02T09:29:44.339Z,8.45
2018-12-02T09:32:19.538Z,7.50
2018-12-02T09:34:53.564Z,8.20
2018-12-02T09:37:27.966Z,7.75
2018-12-02T09:40:03.158Z,7.22
2018-12-02T09:42:38.408Z,7.47
2018-12-02T09:47:58.322Z,6.58
2018-12-02T09:50:32.339Z,7.50
2018-12-02T09:53:08.852Z,7.20
2018-12-02T09:55:46.780Z,8.35
2018-12-02T09:58:27.522Z,8.08
2018-12-02T10:01:04.239Z,7.58
2018-12-02T10:03:38.223Z,6.60
2018-12-02T10:06:13.862Z,7.27
2018-12-02T10:08:53.687Z,7.33
2018-12-02T10:11:32.648Z,7.63
2018-12-02T10:14:08.219Z,7.08
2018-12-02T10:16:42.292Z,8.03
2018-12-02T10:19:16.139Z,7.87
2018-12-02T10:21:51.062Z,7.83
2018-12-02T10:24:26.361Z,9.30
2018-12-02T10:27:00.354Z,9.50
2018-12-02T10:29:34.247Z,9.73
2018-12-02T10:32:12.307Z,10.18
2018-12-02T10:34:42.445Z,10.80
2018-12-02T10:37:16.732Z,10.78
2018-12-02T10:39:51.184Z,10.67
2018-12-02T10:42:25.014Z,9.78
2018-12-02T10:44:58.828Z,10.20
2018-12-02T10:47:32.927Z,11.03
2018-12-02T10:50:09.402Z,10.53
2018-12-02T10:52:45.436Z,10.13
2018-12-02T10:55:24.530Z,11.33
2018-12-02T10:57:59.214Z,10.60
2018-12-02T11:00:37.988Z,10.27
2018-12-02T11:03:11.928Z,11.48
2018-12-02T11:05:46.108Z,29.53
2018-12-02T11:08:20.641Z,50.13
2018-12-02T11:10:54.879Z,42.65
2018-12-02T11:13:31.329Z,32.77
2018-12-02T11:16:05.238Z,20.77
2018-12-02T11:18:39.411Z,18.82
2018-12-02T11:21:13.556Z,31.00
2018-12-02T11:23:47.992Z,22.07
2018-12-02T11:26:22.887Z,18.33
2018-12-02T11:28:57.559Z,17.70
2018-12-02T11:31:31.677Z,17.48
2018-12-02T11:34:06.073Z,16.60
2018-12-02T11:36:39.971Z,14.87
2018-12-02T11:39:14.056Z,15.80
2018-12-02T11:41:48.229Z,15.63
2018-12-02T11:44:24.265Z,20.57
2018-12-02T11:46:58.434Z,14.87
2018-12-02T11:49:33.244Z,16.70
2018-12-02T11:52:08.991Z,21.70
2018-12-02T11:54:42.944Z,23.93
2018-12-02T11:57:17.338Z,20.77
2018-12-02T11:59:51.393Z,24.07
2018-12-02T12:02:25.503Z,26.90
2018-12-02T12:05:00.797Z,22.43
2018-12-02T12:07:35.429Z,18.13
2018-12-02T12:10:12.287Z,16.23
2018-12-02T12:12:46.245Z,16.13
2018-12-02T12:15:22.001Z,15.97
2018-12-02T12:17:58.307Z,15.17
2018-12-02T12:20:37.697Z,15.80
2018-12-02T12:23:15.888Z,17.55
2018-12-02T12:25:50.327Z,17.43
2018-12-02T12:28:25.106Z,17.60
2018-12-02T12:31:00.204Z,16.60
2018-12-02T12:33:34.316Z,15.80
2018-12-02T12:36:08.470Z,22.53
2018-12-02T12:38:42.641Z,21.13
2018-12-02T12:41:18.358Z,20.33
2018-12-02T12:43:55.708Z,16.97
2018-12-02T12:46:30.679Z,16.83
2018-12-02T12:49:05.020Z,17.77
2018-12-02T12:51:40.466Z,18.00
2018-12-02T12:54:14.872Z,16.37
2018-12-02T12:56:49.169Z,14.00
2018-12-02T12:59:23.484Z,13.27
2018-12-02T13:01:57.520Z,12.63
2018-12-02T13:04:31.543Z,10.70
2018-12-02T13:07:05.620Z,10.17
2018-12-02T13:09:39.696Z,10.77
2018-12-02T13:12:14.063Z,9.03
2018-12-02T13:14:48.001Z,8.47
2018-12-02T13:17:23.500Z,8.40
2018-12-02T13:19:58.199Z,8.00
2018-12-02T13:22:32.371Z,8.00
2018-12-02T13:25:06.656Z,15.73
2018-12-02T13:27:41.457Z,11.57
2018-12-02T13:30:19.944Z,12.10
2018-12-02T13:32:56.606Z,10.93
2018-12-02T13:35:30.523Z,10.83
2018-12-02T13:38:06.995Z,10.53
2018-12-02T13:40:41.708Z,13.97
2018-12-02T13:43:18.561Z,10.63
2018-12-02T13:45:53.689Z,12.87
2018-12-02T13:48:28.017Z,14.20
2018-12-02T13:51:02.565Z,15.43
2018-12-02T13:53:40.627Z,24.33
2018-12-02T13:56:14.177Z,15.55
2018-12-02T13:58:50.363Z,21.43
2018-12-02T14:01:24.734Z,14.23
2018-12-02T14:03:58.992Z,9.57
2018-12-02T14:06:35.572Z,9.53
2018-12-02T14:09:10.672Z,8.30
2018-12-02T14:11:45.355Z,9.47
2018-12-02T14:14:19.484Z,11.67
2018-12-02T14:17:00.390Z,14.57
2018-12-02T14:19:35.896Z,14.60
2018-12-02T14:22:11.444Z,15.70
2018-12-02T14:24:45.617Z,15.87
2018-12-02T14:27:19.873Z,17.73
2018-12-02T14:29:56.978Z,17.57
2018-12-02T14:32:39.924Z,20.60
2018-12-02T14:35:15.796Z,19.20
2018-12-02T14:37:51.990Z,19.20
2018-12-02T14:40:31.872Z,20.17
2018-12-02T14:43:09.428Z,23.63
2018-12-02T14:45:48.070Z,20.57
2018-12-02T14:48:23.713Z,20.23
2018-12-02T14:51:01.519Z,22.27
2018-12-02T14:53:50.812Z,21.47
2018-12-02T14:56:30.611Z,19.73
2018-12-02T14:59:14.854Z,19.83
2018-12-02T15:01:54.047Z,18.90
2018-12-02T15:04:29.731Z,18.47
2018-12-02T15:07:09.956Z,17.20
2018-12-02T15:09:49.350Z,17.23
2018-12-02T15:12:27.052Z,17.77
2018-12-02T15:15:04.478Z,17.10
2018-12-02T15:17:42.113Z,20.67
2018-12-02T15:20:21.561Z,20.63
2018-12-02T15:22:58.608Z,18.23
2018-12-02T15:25:36.604Z,20.27
2018-12-02T15:28:13.629Z,18.83
2018-12-02T15:30:49.292Z,17.83
2018-12-02T15:33:29.609Z,16.48
2018-12-02T15:36:08.503Z,15.20
2018-12-02T15:38:42.468Z,14.47
2018-12-02T15:41:18.161Z,15.13
2018-12-02T15:43:53.496Z,15.53
2018-12-02T15:46:28.622Z,15.43
2018-12-02T15:49:02.633Z,15.70
2018-12-02T15:51:36.526Z,14.63
2018-12-02T15:54:16.630Z,15.63
2018-12-02T15:56:52.156Z,14.73
2018-12-02T15:59:34.095Z,14.07
2018-12-02T16:02:10.153Z,14.07
2018-12-02T16:04:47.016Z,13.83
2018-12-02T16:07:22.838Z,15.60
2018-12-02T16:09:58.642Z,12.80
2018-12-02T16:12:37.495Z,15.00
2018-12-02T16:15:20.379Z,14.27
2018-12-02T16:17:56.930Z,14.40
2018-12-02T16:20:35.049Z,13.03
2018-12-02T16:23:15.377Z,12.30
2018-12-02T16:25:53.008Z,12.97
2018-12-02T16:28:33.514Z,13.10
2018-12-02T16:31:12.193Z,13.53
2018-12-02T16:33:54.749Z,13.30
2018-12-02T16:36:43.526Z,13.10
2018-12-02T16:39:23.814Z,13.03
2018-12-02T16:42:00.457Z,14.27
2018-12-02T16:44:39.733Z,13.67
2018-12-02T16:47:16.936Z,15.53
2018-12-02T16:49:53.078Z,14.20
2018-12-02T16:52:33.479Z,13.08
2018-12-02T16:55:09.995Z,13.37
2018-12-02T16:57:46.481Z,12.20
2018-12-02T17:03:26.516Z,13.28
2018-12-02T17:06:01.237Z,14.03
2018-12-02T17:08:47.706Z,13.73
2018-12-02T17:11:23.358Z,16.52
2018-12-02T17:14:05.847Z,14.20
2018-12-02T17:16:42.204Z,14.40
2018-12-02T17:19:24.488Z,15.47
2018-12-02T17:22:03.808Z,14.97
2018-12-02T17:24:41.890Z,16.80
2018-12-02T17:27:19.159Z,15.53
2018-12-02T17:30:07.029Z,15.63
2018-12-02T17:32:50.257Z,14.83
2018-12-02T17:35:28.178Z,14.30
2018-12-02T17:38:03.099Z,13.50
2018-12-02T17:40:44.208Z,14.80
2018-12-02T17:43:22.519Z,14.03
2018-12-02T17:46:01.142Z,14.00
2018-12-02T17:48:43.658Z,14.43
2018-12-02T17:51:21.667Z,14.47
2018-12-02T17:53:55.839Z,15.13
2018-12-02T17:56:29.895Z,14.47
2018-12-02T17:59:04.420Z,13.77
2018-12-02T18:01:39.996Z,14.07
2018-12-02T18:04:14.056Z,13.20
2018-12-02T18:06:50.188Z,14.00
2018-12-02T18:09:25.834Z,14.33
2018-12-02T18:12:00.074Z,13.47
2018-12-02T18:14:34.487Z,14.53
2018-12-02T18:17:11.286Z,14.30
2018-12-02T18:19:54.719Z,13.43
2018-12-02T18:22:35.503Z,13.70
2018-12-02T18:25:17.178Z,14.20
2018-12-02T18:27:54.567Z,13.40
2018-12-02T18:30:39.177Z,15.57
2018-12-02T18:33:14.371Z,16.32
2018-12-02T18:35:57.467Z,16.77
2018-12-02T18:38:40.276Z,15.35
2018-12-02T18:41:24.706Z,14.40
2018-12-02T18:44:04.306Z,13.17
2018-12-02T18:46:45.416Z,13.63
2018-12-02T18:49:20.620Z,13.93
2018-12-02T18:51:54.876Z,14.03
2018-12-02T18:54:32.219Z,13.50
2018-12-02T18:57:12.818Z,13.60
2018-12-02T18:59:51.522Z,14.53
2018-12-02T19:02:29.866Z,15.73
2018-12-02T19:05:10.282Z,14.70
2018-12-02T19:07:51.449Z,15.90
2018-12-02T19:10:32.896Z,15.63
2018-12-02T19:13:10.874Z,13.28
2018-12-02T19:15:50.296Z,13.43
2018-12-02T19:18:33.049Z,12.20
2018-12-02T19:21:11.690Z,13.03
2018-12-02T19:23:47.609Z,12.70
2018-12-02T19:26:27.637Z,14.20
2018-12-02T19:29:05.723Z,13.57
2018-12-02T19:31:43.633Z,13.63
2018-12-02T19:34:20.371Z,13.43
2018-12-02T19:37:01.759Z,13.90
2018-12-02T19:39:43.626Z,11.57
2018-12-02T19:42:21.437Z,12.97
2018-12-02T19:44:57.994Z,12.50
2018-12-02T19:50:22.904Z,12.70
2018-12-02T19:53:03.432Z,11.83
2018-12-02T19:55:41.128Z,13.67
2018-12-02T19:58:23.011Z,11.80
2018-12-02T20:01:06.258Z,12.97
2018-12-02T20:03:46.644Z,11.17
2018-12-02T20:06:27.043Z,11.43
2018-12-02T20:09:12.042Z,11.93
2018-12-02T20:11:54.463Z,12.10
2018-12-02T20:14:33.533Z,13.03
2018-12-02T20:17:15.975Z,12.47
2018-12-02T20:21:02.218Z,12.00
2018-12-02T20:23:44.486Z,11.47
2018-12-02T20:26:23.947Z,12.27
2018-12-02T20:29:06.530Z,12.27
2018-12-02T20:31:43.962Z,12.33
2018-12-02T20:34:23.955Z,11.97
2018-12-02T20:37:01.645Z,13.30
2018-12-02T20:39:42.472Z,12.87
2018-12-02T20:42:17.669Z,11.70
2018-12-02T20:44:53.430Z,12.63
2018-12-02T20:47:30.085Z,13.63
2018-12-02T20:50:11.542Z,13.43
2018-12-02T20:52:50.859Z,12.10
2018-12-02T20:55:33.354Z,12.43
2018-12-02T20:58:11.868Z,12.33
2018-12-02T21:00:47.829Z,12.43
2018-12-02T21:03:31.857Z,12.57
2018-12-02T21:06:23.533Z,12.47
2018-12-02T21:08:59.296Z,12.40
2018-12-02T21:11:40.477Z,12.73
2018-12-02T21:17:14.031Z,12.30
2018-12-02T21:19:49.879Z,11.97
2018-12-02T21:22:27.068Z,11.03
2018-12-02T21:25:05.799Z,12.23
2018-12-02T21:27:46.821Z,11.07
2018-12-02T21:30:31.616Z,11.83
2018-12-02T21:33:10.497Z,11.20
2018-12-02T21:35:46.203Z,11.00
2018-12-02T21:38:23.591Z,11.63
2018-12-02T21:40:59.744Z,11.57
2018-12-02T21:43:39.419Z,11.83
2018-12-02T21:46:16.719Z,12.47
2018-12-02T21:48:50.558Z,11.30
2018-12-02T21:51:30.823Z,10.87
2018-12-02T21:54:07.414Z,11.10
2018-12-02T21:56:43.384Z,11.80
2018-12-02T21:59:18.291Z,11.47
2018-12-02T22:01:52.639Z,11.97
2018-12-02T22:04:32.067Z,11.30
2018-12-02T22:07:07.986Z,10.70
2018-12-02T22:09:43.839Z,11.53
2018-12-02T22:12:17.940Z,12.40
2018-12-02T22:14:54.379Z,11.60
2018-12-02T22:17:28.994Z,11.63
2018-12-02T22:20:07.201Z,11.37
2018-12-02T22:22:41.615Z,12.07
2018-12-02T22:25:19.324Z,12.37
2018-12-02T22:27:58.090Z,14.07
2018-12-02T22:30:35.279Z,13.77
2018-12-02T22:33:13.117Z,12.73
2018-12-02T22:35:49.957Z,13.10
2018-12-02T22:38:28.195Z,12.53
2018-12-02T22:41:05.789Z,11.90
2018-12-02T22:43:39.901Z,11.37
2018-12-02T22:46:17.116Z,10.87
2018-12-02T22:48:51.073Z,11.00
2018-12-02T22:51:31.332Z,11.33
2018-12-02T22:54:06.494Z,11.23
2018-12-02T22:56:40.830Z,12.13
2018-12-02T22:59:18.848Z,13.13
2018-12-02T23:01:57.949Z,12.77
2018-12-02T23:04:33.179Z,12.80
2018-12-02T23:07:10.882Z,13.00
2018-12-02T23:09:50.046Z,13.00
2018-12-02T23:12:24.137Z,11.40
2018-12-02T23:14:59.953Z,11.67
2018-12-02T23:17:34.552Z,11.43
2018-12-02T23:20:11.474Z,12.67
2018-12-02T23:22:47.806Z,11.63
2018-12-02T23:25:25.040Z,12.53
2018-12-02T23:28:00.636Z,11.63
2018-12-02T23:30:36.390Z,11.90
2018-12-02T23:33:18.672Z,11.03
2018-12-02T23:35:52.658Z,11.40
2018-12-02T23:38:27.224Z,12.90
2018-12-02T23:41:03.948Z,12.17
2018-12-02T23:43:38.430Z,11.47
2018-12-02T23:46:13.857Z,12.33
2018-12-02T23:48:49.974Z,13.10
2018-12-02T23:51:24.384Z,12.67
2018-12-02T23:54:00.289Z,12.50
2018-12-02T23:56:34.534Z,11.77
2018-12-02T23:59:08.708Z,12.33
